createdAt,value
2022-10-19T00:00:47.915Z,81.40
2022-10-19T00:03:19.427Z,81.40
2022-10-19T00:05:49.222Z,81.50
2022-10-19T00:08:16.373Z,81.50
2022-10-19T00:10:43.233Z,81.50
2022-10-19T00:13:10.151Z,81.50
2022-10-19T00:15:40.285Z,81.60
2022-10-19T00:18:07.336Z,81.60
2022-10-19T00:20:36.293Z,81.60
2022-10-19T00:23:03.456Z,81.60
2022-10-19T00:25:30.281Z,81.60
2022-10-19T00:27:57.125Z,81.70
2022-10-19T00:30:24.188Z,81.70
2022-10-19T00:32:51.019Z,81.70
2022-10-19T00:35:18.489Z,81.70
2022-10-19T00:37:46.747Z,81.70
2022-10-19T00:40:13.886Z,81.70
2022-10-19T00:42:40.964Z,81.90
2022-10-19T00:45:15.461Z,82.00
2022-10-19T00:47:44.514Z,82.10
2022-10-19T00:50:14.217Z,82.20
2022-10-19T00:52:41.556Z,82.20
2022-10-19T00:55:12.514Z,82.30
2022-10-19T00:57:40.413Z,82.40
2022-10-19T01:00:09.119Z,82.40
2022-10-19T01:02:39.520Z,82.50
2022-10-19T01:05:07.711Z,82.60
2022-10-19T01:07:34.882Z,82.50
2022-10-19T01:10:03.134Z,82.60
2022-10-19T01:12:46.776Z,82.60
2022-10-19T01:15:28.347Z,82.50
2022-10-19T01:18:04.454Z,82.50
2022-10-19T01:20:54.922Z,82.50
2022-10-19T01:23:41.847Z,82.50
2022-10-19T01:26:23.396Z,82.50
2022-10-19T01:29:03.798Z,82.50
2022-10-19T01:31:44.385Z,82.60
2022-10-19T01:34:17.730Z,82.60
2022-10-19T01:36:50.824Z,82.70
2022-10-19T01:39:24.932Z,82.70
2022-10-19T01:42:00.171Z,82.80
2022-10-19T01:44:31.863Z,82.80
2022-10-19T01:47:05.439Z,82.80
2022-10-19T01:49:38.288Z,82.80
2022-10-19T01:52:08.432Z,82.80
2022-10-19T01:54:39.684Z,82.80
2022-10-19T01:57:08.706Z,82.80
2022-10-19T01:59:37.302Z,82.60
2022-10-19T02:02:06.703Z,82.60
2022-10-19T02:04:35.431Z,82.50
2022-10-19T02:07:03.111Z,82.50
2022-10-19T02:09:30.304Z,82.50
2022-10-19T02:12:01.287Z,82.50
2022-10-19T02:14:32.184Z,82.50
2022-10-19T02:17:03.488Z,82.50
2022-10-19T02:19:39.701Z,82.50
2022-10-19T02:22:07.136Z,82.80
2022-10-19T02:24:37.021Z,82.90
2022-10-19T02:27:05.484Z,83.00
2022-10-19T02:29:42.201Z,82.90
2022-10-19T02:32:11.311Z,82.80
2022-10-19T02:34:40.497Z,82.80
2022-10-19T02:37:07.452Z,82.90
2022-10-19T02:39:37.624Z,82.70
2022-10-19T02:42:08.785Z,82.80
2022-10-19T02:44:42.272Z,82.80
2022-10-19T02:47:15.291Z,82.90
2022-10-19T02:49:44.887Z,82.90
2022-10-19T02:52:13.388Z,82.90
2022-10-19T02:54:42.548Z,82.90
2022-10-19T02:57:16.734Z,82.90
2022-10-19T02:59:43.864Z,82.80
2022-10-19T03:02:10.856Z,82.90
2022-10-19T03:04:37.759Z,82.90
2022-10-19T03:07:05.997Z,82.90
2022-10-19T03:09:32.791Z,83.00
2022-10-19T03:12:00.280Z,83.00
2022-10-19T03:14:27.355Z,83.00
2022-10-19T03:16:54.396Z,83.00
2022-10-19T03:19:21.283Z,83.00
2022-10-19T03:21:48.063Z,83.00
2022-10-19T03:24:16.791Z,83.00
2022-10-19T03:26:43.993Z,83.00
2022-10-19T03:29:10.872Z,83.00
2022-10-19T03:31:38.187Z,83.00
2022-10-19T03:34:05.099Z,82.90
2022-10-19T03:36:34.142Z,83.00
2022-10-19T03:39:03.850Z,83.10
2022-10-19T03:41:33.747Z,83.10
2022-10-19T03:46:34.139Z,83.10
2022-10-19T03:49:01.134Z,83.20
2022-10-19T03:51:30.100Z,83.10
2022-10-19T03:53:59.564Z,83.20
2022-10-19T03:56:28.910Z,83.10
2022-10-19T03:58:58.792Z,83.10
2022-10-19T04:01:27.648Z,83.20
2022-10-19T04:03:55.353Z,83.20
2022-10-19T04:06:25.462Z,83.30
2022-10-19T04:08:52.688Z,83.20
2022-10-19T04:11:22.178Z,83.30
2022-10-19T04:13:50.309Z,83.30
2022-10-19T04:16:19.427Z,83.30
2022-10-19T04:18:47.110Z,83.20
2022-10-19T04:21:21.747Z,83.20
2022-10-19T04:23:49.007Z,83.20
2022-10-19T04:26:16.878Z,83.20
2022-10-19T04:28:43.724Z,83.30
2022-10-19T04:31:11.696Z,83.40
2022-10-19T04:33:40.412Z,83.30
2022-10-19T04:36:09.370Z,83.20
2022-10-19T04:38:37.149Z,83.30
2022-10-19T04:41:05.524Z,83.20
2022-10-19T04:43:33.086Z,83.20
2022-10-19T04:46:03.866Z,83.20
2022-10-19T04:48:30.906Z,83.20
2022-10-19T04:50:59.177Z,83.20
2022-10-19T04:53:26.690Z,83.20
2022-10-19T04:55:53.568Z,83.30
2022-10-19T04:58:20.524Z,83.50
2022-10-19T05:00:47.856Z,83.50
2022-10-19T05:03:14.730Z,83.70
2022-10-19T05:05:41.699Z,83.60
2022-10-19T05:08:10.693Z,83.60
2022-10-19T05:10:38.125Z,83.70
2022-10-19T05:13:06.670Z,83.70
2022-10-19T05:15:33.625Z,83.50
2022-10-19T05:18:01.415Z,83.60
2022-10-19T05:20:28.330Z,83.70
2022-10-19T05:22:57.865Z,83.70
2022-10-19T05:25:26.414Z,83.80
2022-10-19T05:27:53.656Z,83.70
2022-10-19T05:30:21.847Z,83.80
2022-10-19T05:32:48.984Z,83.70
2022-10-19T05:35:18.683Z,83.60
2022-10-19T05:37:48.399Z,83.70
2022-10-19T05:40:18.295Z,83.60
2022-10-19T05:42:46.493Z,83.50
2022-10-19T05:45:15.857Z,83.50
2022-10-19T05:47:42.798Z,83.50
2022-10-19T05:50:09.799Z,83.50
2022-10-19T05:52:36.635Z,83.50
2022-10-19T05:55:04.197Z,83.40
2022-10-19T05:57:33.445Z,83.50
2022-10-19T06:00:02.283Z,83.60
2022-10-19T06:02:29.449Z,83.70
2022-10-19T06:04:56.620Z,83.50
2022-10-19T06:07:23.649Z,83.90
2022-10-19T06:09:50.709Z,83.70
2022-10-19T06:12:21.485Z,83.60
2022-10-19T06:14:51.140Z,83.60
2022-10-19T06:17:19.388Z,83.60
2022-10-19T06:19:48.839Z,83.60
2022-10-19T06:22:15.697Z,83.60
2022-10-19T06:24:42.464Z,83.60
2022-10-19T06:27:09.701Z,83.70
2022-10-19T06:29:36.619Z,83.70
2022-10-19T06:32:03.796Z,83.60
2022-10-19T06:34:32.020Z,83.50
2022-10-19T06:36:59.199Z,83.40
2022-10-19T06:39:26.100Z,83.50
2022-10-19T06:41:53.422Z,83.60
2022-10-19T06:44:20.416Z,83.50
2022-10-19T06:46:47.836Z,83.70
2022-10-19T06:49:14.767Z,83.60
2022-10-19T06:51:43.047Z,83.80
2022-10-19T06:54:09.885Z,83.70
2022-10-19T06:56:36.785Z,83.70
2022-10-19T06:59:07.478Z,83.60
2022-10-19T07:01:34.341Z,83.80
2022-10-19T07:04:01.179Z,83.90
2022-10-19T07:06:28.561Z,83.80
2022-10-19T07:08:56.920Z,83.90
2022-10-19T07:11:23.789Z,83.80
2022-10-19T07:13:52.892Z,83.80
2022-10-19T07:16:21.423Z,84.00
2022-10-19T07:18:50.469Z,84.00
2022-10-19T07:21:19.157Z,83.70
2022-10-19T07:23:47.284Z,83.70
2022-10-19T07:26:17.482Z,83.70
2022-10-19T07:28:46.393Z,83.60
2022-10-19T07:31:17.671Z,83.60
2022-10-19T07:33:44.714Z,83.60
2022-10-19T07:36:13.660Z,83.70
2022-10-19T07:38:41.023Z,83.90
2022-10-19T07:41:09.975Z,83.70
2022-10-19T07:43:40.476Z,83.90
2022-10-19T07:46:09.519Z,83.90
2022-10-19T07:48:36.575Z,83.90
2022-10-19T07:51:06.317Z,83.40
2022-10-19T07:53:34.085Z,83.40
2022-10-19T07:56:04.160Z,83.30
2022-10-19T07:58:33.757Z,83.10
2022-10-19T08:01:03.415Z,82.60
2022-10-19T08:06:19.120Z,82.50
2022-10-19T08:08:46.643Z,81.60
2022-10-19T08:11:16.972Z,81.20
2022-10-19T08:13:44.310Z,80.90
2022-10-19T08:16:24.154Z,80.10
2022-10-19T08:18:52.079Z,79.80
2022-10-19T08:21:19.150Z,79.10
2022-10-19T08:23:46.359Z,77.40
2022-10-19T08:26:13.320Z,78.30
2022-10-19T08:28:40.602Z,78.10
2022-10-19T08:31:13.208Z,78.10
2022-10-19T08:33:41.826Z,76.30
2022-10-19T08:36:10.672Z,75.30
2022-10-19T08:38:38.260Z,76.40
2022-10-19T08:41:12.944Z,75.10
2022-10-19T08:43:48.470Z,77.00
2022-10-19T08:46:24.733Z,73.80
2022-10-19T08:48:53.598Z,74.90
2022-10-19T08:51:20.448Z,74.90
2022-10-19T08:53:55.562Z,72.40
2022-10-19T08:56:50.055Z,73.00
2022-10-19T08:59:27.220Z,74.20
2022-10-19T09:01:57.997Z,71.50
2022-10-19T09:04:30.780Z,73.60
2022-10-19T09:07:20.252Z,71.10
2022-10-19T09:09:51.216Z,72.70
2022-10-19T09:12:23.930Z,72.10
2022-10-19T09:14:56.286Z,72.20
2022-10-19T09:17:25.205Z,71.90
2022-10-19T09:19:53.788Z,71.60
2022-10-19T09:22:25.785Z,69.90
2022-10-19T09:24:56.440Z,70.20
2022-10-19T09:27:25.174Z,70.70
2022-10-19T09:29:55.379Z,70.60
2022-10-19T09:32:27.717Z,67.30
2022-10-19T09:35:01.418Z,67.90
2022-10-19T09:39:57.375Z,68.40
2022-10-19T09:42:29.451Z,68.10
2022-10-19T09:44:58.432Z,66.90
2022-10-19T09:47:35.631Z,70.10
2022-10-19T09:50:14.273Z,69.30
2022-10-19T09:52:43.227Z,69.00
2022-10-19T09:55:25.216Z,65.90
2022-10-19T09:58:01.299Z,67.70
2022-10-19T10:00:34.867Z,67.90
2022-10-19T10:03:02.268Z,65.80
2022-10-19T10:05:35.493Z,66.70
2022-10-19T10:08:03.152Z,67.40
2022-10-19T10:10:38.222Z,66.30
2022-10-19T10:13:05.888Z,65.70
2022-10-19T10:15:41.255Z,66.10
2022-10-19T10:18:13.361Z,65.80
2022-10-19T10:23:31.390Z,65.80
2022-10-19T10:25:59.699Z,66.30
2022-10-19T10:28:27.954Z,65.90
2022-10-19T10:31:00.223Z,67.50
2022-10-19T10:33:45.608Z,65.10
2022-10-19T10:36:14.368Z,64.90
2022-10-19T10:38:45.388Z,67.80
2022-10-19T10:41:16.371Z,68.10
2022-10-19T10:43:53.594Z,68.60
2022-10-19T10:46:24.869Z,69.80
2022-10-19T10:48:58.075Z,70.30
2022-10-19T10:51:32.889Z,69.80
2022-10-19T10:54:10.232Z,70.30
2022-10-19T10:56:40.920Z,69.40
2022-10-19T10:59:14.285Z,70.40
2022-10-19T11:01:45.100Z,70.00
2022-10-19T11:04:17.961Z,69.80
2022-10-19T11:06:54.938Z,69.90
2022-10-19T11:09:29.821Z,69.90
2022-10-19T11:12:01.207Z,69.10
2022-10-19T11:14:36.471Z,69.10
2022-10-19T11:17:06.579Z,68.80
2022-10-19T11:19:36.792Z,69.70
2022-10-19T11:22:15.464Z,69.80
2022-10-19T11:24:55.262Z,69.30
2022-10-19T11:27:33.485Z,69.40
2022-10-19T11:30:10.591Z,69.40
2022-10-19T11:32:51.580Z,69.60
2022-10-19T11:35:31.147Z,69.50
2022-10-19T11:38:21.165Z,69.70
2022-10-19T11:41:16.868Z,69.60
2022-10-19T11:43:55.933Z,69.50
2022-10-19T11:46:28.833Z,69.40
2022-10-19T11:49:05.963Z,69.30
2022-10-19T11:51:41.865Z,69.50
2022-10-19T11:54:21.684Z,69.90
2022-10-19T11:57:11.482Z,69.50
2022-10-19T12:00:00.254Z,69.50
2022-10-19T12:03:05.018Z,69.50
2022-10-19T12:05:36.636Z,69.20
2022-10-19T12:08:16.118Z,68.70
2022-10-19T12:10:51.021Z,69.50
2022-10-19T12:13:23.203Z,69.50
2022-10-19T12:15:55.653Z,69.60
2022-10-19T12:18:32.135Z,69.50
2022-10-19T12:21:02.246Z,69.50
2022-10-19T12:23:33.490Z,69.30
2022-10-19T12:26:05.818Z,69.20
2022-10-19T12:28:35.312Z,69.20
2022-10-19T12:31:03.998Z,69.30
2022-10-19T12:33:43.933Z,69.50
2022-10-19T12:36:24.698Z,69.50
2022-10-19T12:39:00.862Z,69.40
2022-10-19T12:41:36.116Z,69.70
2022-10-19T12:44:17.508Z,69.40
2022-10-19T12:46:49.876Z,69.80
2022-10-19T12:49:46.537Z,70.10
2022-10-19T12:52:15.027Z,70.00
2022-10-19T12:54:44.045Z,70.00
2022-10-19T12:57:26.678Z,70.10
2022-10-19T13:00:03.966Z,70.00
2022-10-19T13:02:34.233Z,70.30
2022-10-19T13:05:01.649Z,70.30
2022-10-19T13:07:33.507Z,70.20
2022-10-19T13:10:02.737Z,70.30
2022-10-19T13:12:44.127Z,70.10
2022-10-19T13:15:57.085Z,70.00
2022-10-19T13:19:06.650Z,69.70
2022-10-19T13:22:01.985Z,69.80
2022-10-19T13:24:32.483Z,70.00
2022-10-19T13:27:24.935Z,70.00
2022-10-19T13:29:53.454Z,70.20
2022-10-19T13:32:47.007Z,70.00
2022-10-19T13:35:37.588Z,69.80
2022-10-19T13:38:24.314Z,69.90
2022-10-19T13:41:05.421Z,70.10
2022-10-19T13:43:34.529Z,70.10
2022-10-19T13:46:09.326Z,69.80
2022-10-19T13:49:13.598Z,70.10
2022-10-19T13:51:53.591Z,70.40
2022-10-19T13:54:37.815Z,70.30
2022-10-19T13:57:17.764Z,69.90
2022-10-19T14:00:10.988Z,69.90
2022-10-19T14:02:58.407Z,70.00
2022-10-19T14:05:53.608Z,70.20
2022-10-19T14:08:49.759Z,70.20
2022-10-19T14:11:21.671Z,70.30
2022-10-19T14:14:09.145Z,70.10
2022-10-19T14:16:46.472Z,70.30
2022-10-19T14:19:19.779Z,70.60
2022-10-19T14:21:46.644Z,70.40
2022-10-19T14:24:21.104Z,70.60
2022-10-19T14:26:48.350Z,70.70
2022-10-19T14:29:18.675Z,70.60
2022-10-19T14:31:48.431Z,70.70
2022-10-19T14:34:16.656Z,70.70
2022-10-19T14:36:45.812Z,70.80
2022-10-19T14:39:23.940Z,70.70
2022-10-19T14:41:54.589Z,70.70
2022-10-19T14:44:36.179Z,70.30
2022-10-19T14:47:15.185Z,70.30
2022-10-19T14:49:43.560Z,70.50
2022-10-19T14:52:15.640Z,70.60
2022-10-19T14:54:46.721Z,70.30
2022-10-19T14:57:17.508Z,70.60
2022-10-19T14:59:47.217Z,70.50
2022-10-19T15:02:18.842Z,70.60
2022-10-19T15:04:48.222Z,70.70
2022-10-19T15:07:19.324Z,70.80
2022-10-19T15:09:55.596Z,70.40
2022-10-19T15:12:28.470Z,70.80
2022-10-19T15:14:56.322Z,70.70
2022-10-19T15:17:26.828Z,70.70
2022-10-19T15:19:56.170Z,70.60
2022-10-19T15:22:37.218Z,70.40
2022-10-19T15:25:27.082Z,70.40
2022-10-19T15:27:54.342Z,70.20
2022-10-19T15:30:29.321Z,70.70
2022-10-19T15:33:10.253Z,70.70
2022-10-19T15:35:40.736Z,70.80
2022-10-19T15:38:12.637Z,70.70
2022-10-19T15:40:41.691Z,70.90
2022-10-19T15:43:24.060Z,70.70
2022-10-19T15:46:00.092Z,70.80
2022-10-19T15:48:29.419Z,70.80
2022-10-19T15:50:57.793Z,71.00
2022-10-19T15:53:26.137Z,71.00
2022-10-19T15:55:58.524Z,71.00
2022-10-19T15:58:25.819Z,71.00
2022-10-19T16:00:52.661Z,71.20
2022-10-19T16:03:19.980Z,71.20
2022-10-19T16:05:47.186Z,71.10
2022-10-19T16:08:15.688Z,71.20
2022-10-19T16:10:42.529Z,70.90
2022-10-19T16:13:09.413Z,71.20
2022-10-19T16:15:36.325Z,71.40
2022-10-19T16:18:03.234Z,71.40
2022-10-19T16:20:30.156Z,71.50
2022-10-19T16:22:57.963Z,71.60
2022-10-19T16:25:26.176Z,71.70
2022-10-19T16:27:53.020Z,71.70
2022-10-19T16:30:20.172Z,71.70
2022-10-19T16:32:48.342Z,71.80
2022-10-19T16:35:15.884Z,71.80
2022-10-19T16:37:42.917Z,71.90
2022-10-19T16:40:12.782Z,72.00
2022-10-19T16:42:41.093Z,72.20
2022-10-19T16:45:09.193Z,72.20
2022-10-19T16:47:36.078Z,72.30
2022-10-19T16:50:05.727Z,72.40
2022-10-19T16:52:33.592Z,72.60
2022-10-19T16:55:00.821Z,72.70
2022-10-19T16:57:27.745Z,72.80
2022-10-19T16:59:56.227Z,72.90
2022-10-19T17:02:23.565Z,73.00
2022-10-19T17:04:50.477Z,73.20
2022-10-19T17:07:18.266Z,73.50
2022-10-19T17:09:47.852Z,73.40
2022-10-19T17:12:19.760Z,73.50
2022-10-19T17:14:46.795Z,73.60
2022-10-19T17:17:17.366Z,73.80
2022-10-19T17:19:44.220Z,73.70
2022-10-19T17:22:11.709Z,73.70
2022-10-19T17:24:39.259Z,73.90
2022-10-19T17:27:09.032Z,73.90
2022-10-19T17:29:37.810Z,74.00
2022-10-19T17:32:05.201Z,73.80
2022-10-19T17:34:33.561Z,74.00
2022-10-19T17:37:00.874Z,73.80
2022-10-19T17:39:29.971Z,73.80
2022-10-19T17:42:01.927Z,74.00
2022-10-19T17:44:31.353Z,74.00
2022-10-19T17:46:59.772Z,74.00
2022-10-19T17:49:26.650Z,74.10
2022-10-19T17:51:55.181Z,73.90
2022-10-19T17:54:22.193Z,74.20
2022-10-19T17:56:49.376Z,74.10
2022-10-19T17:59:16.225Z,74.10
2022-10-19T18:01:45.281Z,74.20
2022-10-19T18:04:12.393Z,74.20
2022-10-19T18:06:39.456Z,74.20
2022-10-19T18:09:09.524Z,74.30
2022-10-19T18:11:39.872Z,74.30
2022-10-19T18:14:08.824Z,74.30
2022-10-19T18:16:38.328Z,74.30
2022-10-19T18:19:06.261Z,74.40
2022-10-19T18:21:35.910Z,74.40
2022-10-19T18:24:04.114Z,74.40
2022-10-19T18:26:33.884Z,74.60
2022-10-19T18:29:02.726Z,74.50
2022-10-19T18:31:33.423Z,74.70
2022-10-19T18:34:01.950Z,74.70
2022-10-19T18:36:32.920Z,74.70
2022-10-19T18:39:01.666Z,74.70
2022-10-19T18:41:33.427Z,74.70
2022-10-19T18:44:03.555Z,74.70
2022-10-19T18:46:31.394Z,74.70
2022-10-19T18:48:59.840Z,74.70
2022-10-19T18:51:28.130Z,75.00
2022-10-19T18:53:55.559Z,74.80
2022-10-19T18:56:26.308Z,74.90
2022-10-19T18:58:54.477Z,75.00
2022-10-19T19:01:24.280Z,74.90
2022-10-19T19:03:52.424Z,75.00
2022-10-19T19:06:22.419Z,75.00
2022-10-19T19:08:49.737Z,74.90
2022-10-19T19:11:18.436Z,75.00
2022-10-19T19:13:49.468Z,75.20
2022-10-19T19:16:17.879Z,75.20
2022-10-19T19:18:45.050Z,75.10
2022-10-19T19:21:14.932Z,75.10
2022-10-19T19:23:42.564Z,75.40
2022-10-19T19:26:10.588Z,75.40
2022-10-19T19:28:40.697Z,75.40
2022-10-19T19:31:09.771Z,75.30
2022-10-19T19:33:38.054Z,75.50
2022-10-19T19:36:06.451Z,75.60
2022-10-19T19:38:33.898Z,75.70
2022-10-19T19:41:04.151Z,75.90
2022-10-19T19:43:39.922Z,75.70
2022-10-19T19:46:09.558Z,76.00
2022-10-19T19:48:38.400Z,75.60
2022-10-19T19:51:07.601Z,75.90
2022-10-19T19:53:34.505Z,75.90
2022-10-19T19:56:01.453Z,76.40
2022-10-19T19:58:28.285Z,75.90
2022-10-19T20:00:55.481Z,75.90
2022-10-19T20:03:22.352Z,75.90
2022-10-19T20:05:50.647Z,76.00
2022-10-19T20:08:20.399Z,76.00
2022-10-19T20:10:47.229Z,76.20
2022-10-19T20:13:14.185Z,76.20
2022-10-19T20:15:41.166Z,76.20
2022-10-19T20:18:10.058Z,76.10
2022-10-19T20:20:37.520Z,76.00
2022-10-19T20:23:05.736Z,76.20
2022-10-19T20:25:36.372Z,76.20
2022-10-19T20:28:05.374Z,76.10
2022-10-19T20:30:32.690Z,76.40
2022-10-19T20:32:59.689Z,76.20
2022-10-19T20:35:26.902Z,76.30
2022-10-19T20:37:53.739Z,76.30
2022-10-19T20:40:22.049Z,76.30
2022-10-19T20:42:48.906Z,76.70
2022-10-19T20:45:18.721Z,76.30
2022-10-19T20:47:46.055Z,76.50
2022-10-19T20:50:13.002Z,76.40
2022-10-19T20:52:42.693Z,76.40
2022-10-19T20:55:13.410Z,76.50
2022-10-19T20:57:41.923Z,76.80
2022-10-19T21:00:10.588Z,76.60
2022-10-19T21:02:37.694Z,76.50
2022-10-19T21:05:05.530Z,76.50
2022-10-19T21:07:32.329Z,76.50
2022-10-19T21:09:59.146Z,76.50
2022-10-19T21:12:26.106Z,76.80
2022-10-19T21:14:54.580Z,76.70
2022-10-19T21:17:22.000Z,76.70
2022-10-19T21:19:48.912Z,76.80
2022-10-19T21:22:16.000Z,76.80
2022-10-19T21:24:46.083Z,76.80
2022-10-19T21:27:14.494Z,76.70
2022-10-19T21:29:41.821Z,76.80
2022-10-19T21:32:10.660Z,76.90
2022-10-19T21:34:38.068Z,76.80
2022-10-19T21:37:05.017Z,76.80
2022-10-19T21:39:31.870Z,76.80
2022-10-19T21:41:59.011Z,76.90
2022-10-19T21:44:25.890Z,77.00
2022-10-19T21:46:53.147Z,77.20
2022-10-19T21:49:21.499Z,77.10
2022-10-19T21:51:50.109Z,77.10
2022-10-19T21:54:18.803Z,77.10
2022-10-19T21:56:46.386Z,77.10
2022-10-19T21:59:14.102Z,77.30
2022-10-19T22:01:41.758Z,77.20
2022-10-19T22:04:12.116Z,77.20
2022-10-19T22:06:40.887Z,77.30
2022-10-19T22:09:10.223Z,77.40
2022-10-19T22:11:37.708Z,77.10
2022-10-19T22:14:05.378Z,77.50
2022-10-19T22:16:37.023Z,77.40
2022-10-19T22:19:05.138Z,77.60
2022-10-19T22:21:34.148Z,77.60
2022-10-19T22:24:04.213Z,77.50
2022-10-19T22:26:33.017Z,77.40
2022-10-19T22:29:01.360Z,77.60
2022-10-19T22:31:30.199Z,77.50
2022-10-19T22:33:57.755Z,77.80
2022-10-19T22:36:24.601Z,77.60
2022-10-19T22:38:51.465Z,77.80
2022-10-19T22:42:14.773Z,77.90
2022-10-19T22:44:43.022Z,78.00
2022-10-19T22:47:09.936Z,78.00
2022-10-19T22:49:36.827Z,77.90
2022-10-19T22:52:04.334Z,77.90
2022-10-19T22:54:31.229Z,78.10
2022-10-19T22:56:58.444Z,77.90
2022-10-19T22:59:25.366Z,78.30
2022-10-19T23:01:54.017Z,78.30
2022-10-19T23:04:21.302Z,78.40
2022-10-19T23:06:48.117Z,78.40
2022-10-19T23:09:15.029Z,78.30
2022-10-19T23:11:41.891Z,78.30
2022-10-19T23:14:08.724Z,78.20
2022-10-19T23:16:35.602Z,78.30
2022-10-19T23:19:03.814Z,78.50
2022-10-19T23:21:30.656Z,78.40
2022-10-19T23:23:59.821Z,78.50
2022-10-19T23:26:26.797Z,78.50
2022-10-19T23:28:53.764Z,78.50
2022-10-19T23:31:25.929Z,78.20
2022-10-19T23:33:53.877Z,78.50
2022-10-19T23:36:24.591Z,78.50
2022-10-19T23:38:52.823Z,78.60
2022-10-19T23:41:20.675Z,78.60
2022-10-19T23:43:48.250Z,78.60
2022-10-19T23:46:15.159Z,78.70
2022-10-19T23:48:42.229Z,78.80
2022-10-19T23:51:11.328Z,78.90
2022-10-19T23:53:42.166Z,79.10
2022-10-19T23:56:15.012Z,79.10
2022-10-19T23:58:44.923Z,79.00
